sensor_id;sensor_type;location;lat;lon;timestamp;P1;durP1;ratioP1;P2;durP2;ratioP2
46751;SDS011;32497;48.936;9.270;2022-11-15T00:33:13;4.43;;;1.27;;
46751;SDS011;32497;48.936;9.270;2022-11-15T00:38:32;2.53;;;0.90;;
46751;SDS011;32497;48.936;9.270;2022-11-15T00:43:52;1.33;;;0.43;;
46751;SDS011;32497;48.936;9.270;2022-11-15T00:49:13;3.80;;;1.23;;
46751;SDS011;32497;48.936;9.270;2022-11-15T00:54:33;1.10;;;0.70;;
46751;SDS011;32497;48.936;9.270;2022-11-15T00:59:52;2.43;;;0.83;;
46751;SDS011;32497;48.936;9.270;2022-11-15T01:05:13;1.40;;;0.90;;
46751;SDS011;32497;48.936;9.270;2022-11-15T01:10:33;1.67;;;0.70;;
46751;SDS011;32497;48.936;9.270;2022-11-15T01:15:52;0.97;;;0.80;;
46751;SDS011;32497;48.936;9.270;2022-11-15T01:21:14;1.73;;;0.90;;
46751;SDS011;32497;48.936;9.270;2022-11-15T01:26:35;2.43;;;0.87;;
46751;SDS011;32497;48.936;9.270;2022-11-15T01:31:54;1.87;;;1.00;;
46751;SDS011;32497;48.936;9.270;2022-11-15T01:37:15;1.00;;;0.70;;
46751;SDS011;32497;48.936;9.270;2022-11-15T01:42:34;1.13;;;0.73;;
46751;SDS011;32497;48.936;9.270;2022-11-15T01:47:54;1.97;;;1.10;;
46751;SDS011;32497;48.936;9.270;2022-11-15T01:53:16;2.37;;;0.90;;
46751;SDS011;32497;48.936;9.270;2022-11-15T01:58:38;1.30;;;0.70;;
46751;SDS011;32497;48.936;9.270;2022-11-15T02:03:59;1.63;;;0.73;;
46751;SDS011;32497;48.936;9.270;2022-11-15T02:09:24;1.33;;;0.80;;
46751;SDS011;32497;48.936;9.270;2022-11-15T02:14:45;2.43;;;1.30;;
46751;SDS011;32497;48.936;9.270;2022-11-15T02:26:04;1.47;;;1.13;;
46751;SDS011;32497;48.936;9.270;2022-11-15T02:31:48;1.93;;;0.97;;
46751;SDS011;32497;48.936;9.270;2022-11-15T02:37:15;1.03;;;0.67;;
46751;SDS011;32497;48.936;9.270;2022-11-15T02:42:41;1.63;;;0.70;;
46751;SDS011;32497;48.936;9.270;2022-11-15T02:48:09;1.23;;;0.63;;
46751;SDS011;32497;48.936;9.270;2022-11-15T02:53:30;1.23;;;0.83;;
46751;SDS011;32497;48.936;9.270;2022-11-15T02:58:57;1.97;;;0.70;;
46751;SDS011;32497;48.936;9.270;2022-11-15T03:04:28;1.10;;;0.63;;
46751;SDS011;32497;48.936;9.270;2022-11-15T03:09:56;1.57;;;1.03;;
46751;SDS011;32497;48.936;9.270;2022-11-15T03:15:22;1.27;;;1.17;;
46751;SDS011;32497;48.936;9.270;2022-11-15T03:20:48;1.23;;;0.93;;
46751;SDS011;32497;48.936;9.270;2022-11-15T03:26:10;1.20;;;0.73;;
46751;SDS011;32497;48.936;9.270;2022-11-15T03:31:33;2.60;;;1.00;;
46751;SDS011;32497;48.936;9.270;2022-11-15T03:36:57;1.67;;;0.97;;
46751;SDS011;32497;48.936;9.270;2022-11-15T03:42:18;0.90;;;0.70;;
46751;SDS011;32497;48.936;9.270;2022-11-15T03:47:44;2.17;;;0.90;;
46751;SDS011;32497;48.936;9.270;2022-11-15T03:53:09;0.73;;;0.50;;
46751;SDS011;32497;48.936;9.270;2022-11-15T03:58:29;1.20;;;0.63;;
46751;SDS011;32497;48.936;9.270;2022-11-15T04:03:48;0.97;;;0.63;;
46751;SDS011;32497;48.936;9.270;2022-11-15T04:09:09;1.17;;;0.50;;
46751;SDS011;32497;48.936;9.270;2022-11-15T04:14:29;2.27;;;0.70;;
46751;SDS011;32497;48.936;9.270;2022-11-15T04:19:48;0.80;;;0.70;;
46751;SDS011;32497;48.936;9.270;2022-11-15T04:25:09;1.70;;;0.77;;
46751;SDS011;32497;48.936;9.270;2022-11-15T04:30:28;1.17;;;0.60;;
46751;SDS011;32497;48.936;9.270;2022-11-15T04:35:48;2.13;;;0.97;;
46751;SDS011;32497;48.936;9.270;2022-11-15T04:41:09;2.27;;;1.00;;
46751;SDS011;32497;48.936;9.270;2022-11-15T04:46:29;1.67;;;0.90;;
46751;SDS011;32497;48.936;9.270;2022-11-15T04:51:49;2.13;;;0.93;;
46751;SDS011;32497;48.936;9.270;2022-11-15T04:57:10;1.23;;;0.90;;
46751;SDS011;32497;48.936;9.270;2022-11-15T05:02:29;3.43;;;1.13;;
46751;SDS011;32497;48.936;9.270;2022-11-15T05:08:04;3.10;;;1.50;;
46751;SDS011;32497;48.936;9.270;2022-11-15T05:13:36;1.60;;;0.83;;
46751;SDS011;32497;48.936;9.270;2022-11-15T05:19:07;2.13;;;0.73;;
46751;SDS011;32497;48.936;9.270;2022-11-15T05:24:27;1.60;;;0.77;;
46751;SDS011;32497;48.936;9.270;2022-11-15T05:29:48;3.40;;;1.10;;
46751;SDS011;32497;48.936;9.270;2022-11-15T05:35:12;1.80;;;0.60;;
46751;SDS011;32497;48.936;9.270;2022-11-15T05:40:37;1.43;;;0.87;;
46751;SDS011;32497;48.936;9.270;2022-11-15T05:46:03;1.83;;;1.00;;
46751;SDS011;32497;48.936;9.270;2022-11-15T05:51:24;1.23;;;0.70;;
46751;SDS011;32497;48.936;9.270;2022-11-15T05:56:46;1.17;;;0.73;;
46751;SDS011;32497;48.936;9.270;2022-11-15T06:02:07;0.90;;;0.70;;
46751;SDS011;32497;48.936;9.270;2022-11-15T06:07:28;8.10;;;0.97;;
46751;SDS011;32497;48.936;9.270;2022-11-15T06:12:55;1.57;;;0.80;;
46751;SDS011;32497;48.936;9.270;2022-11-15T06:18:19;2.67;;;0.93;;
46751;SDS011;32497;48.936;9.270;2022-11-15T06:23:39;2.10;;;0.80;;
46751;SDS011;32497;48.936;9.270;2022-11-15T06:28:58;1.23;;;0.90;;
46751;SDS011;32497;48.936;9.270;2022-11-15T06:34:19;1.93;;;1.00;;
46751;SDS011;32497;48.936;9.270;2022-11-15T06:39:39;0.50;;;0.50;;
46751;SDS011;32497;48.936;9.270;2022-11-15T06:50:17;5.10;;;1.17;;
46751;SDS011;32497;48.936;9.270;2022-11-15T06:55:37;1.37;;;0.50;;
46751;SDS011;32497;48.936;9.270;2022-11-15T07:01:00;0.60;;;0.60;;
46751;SDS011;32497;48.936;9.270;2022-11-15T07:06:21;3.70;;;0.90;;
46751;SDS011;32497;48.936;9.270;2022-11-15T07:11:41;1.40;;;0.70;;
46751;SDS011;32497;48.936;9.270;2022-11-15T07:17:02;3.93;;;1.00;;
46751;SDS011;32497;48.936;9.270;2022-11-15T07:22:24;1.80;;;0.70;;
46751;SDS011;32497;48.936;9.270;2022-11-15T07:27:43;5.77;;;0.77;;
46751;SDS011;32497;48.936;9.270;2022-11-15T07:33:02;1.23;;;0.57;;
46751;SDS011;32497;48.936;9.270;2022-11-15T07:38:23;2.07;;;0.80;;
46751;SDS011;32497;48.936;9.270;2022-11-15T07:43:43;2.10;;;1.00;;
46751;SDS011;32497;48.936;9.270;2022-11-15T07:49:03;2.47;;;1.20;;
46751;SDS011;32497;48.936;9.270;2022-11-15T07:54:24;3.00;;;0.80;;
46751;SDS011;32497;48.936;9.270;2022-11-15T07:59:43;3.00;;;1.13;;
46751;SDS011;32497;48.936;9.270;2022-11-15T08:05:03;5.23;;;1.40;;
46751;SDS011;32497;48.936;9.270;2022-11-15T08:10:24;5.47;;;1.37;;
46751;SDS011;32497;48.936;9.270;2022-11-15T08:15:45;1.83;;;1.40;;
46751;SDS011;32497;48.936;9.270;2022-11-15T08:21:04;1.87;;;1.03;;
46751;SDS011;32497;48.936;9.270;2022-11-15T08:26:25;2.10;;;0.97;;
46751;SDS011;32497;48.936;9.270;2022-11-15T08:31:46;2.17;;;1.30;;
46751;SDS011;32497;48.936;9.270;2022-11-15T08:37:05;1.63;;;1.00;;
46751;SDS011;32497;48.936;9.270;2022-11-15T08:42:26;1.77;;;1.13;;
46751;SDS011;32497;48.936;9.270;2022-11-15T08:47:46;1.57;;;0.90;;
46751;SDS011;32497;48.936;9.270;2022-11-15T08:53:06;2.50;;;1.10;;
46751;SDS011;32497;48.936;9.270;2022-11-15T08:58:27;3.13;;;1.43;;
46751;SDS011;32497;48.936;9.270;2022-11-15T09:03:47;2.73;;;1.57;;
46751;SDS011;32497;48.936;9.270;2022-11-15T09:09:06;4.10;;;1.23;;
46751;SDS011;32497;48.936;9.270;2022-11-15T09:14:27;2.03;;;1.10;;
46751;SDS011;32497;48.936;9.270;2022-11-15T09:19:47;1.80;;;1.20;;
46751;SDS011;32497;48.936;9.270;2022-11-15T09:25:07;1.27;;;0.93;;
46751;SDS011;32497;48.936;9.270;2022-11-15T09:30:29;2.30;;;1.30;;
46751;SDS011;32497;48.936;9.270;2022-11-15T09:35:48;2.70;;;1.20;;
46751;SDS011;32497;48.936;9.270;2022-11-15T09:41:26;2.27;;;1.17;;
46751;SDS011;32497;48.936;9.270;2022-11-15T09:47:21;1.30;;;1.00;;
46751;SDS011;32497;48.936;9.270;2022-11-15T09:53:00;2.17;;;1.23;;
46751;SDS011;32497;48.936;9.270;2022-11-15T09:58:03;2.00;;;1.25;;
46751;SDS011;32497;48.936;9.270;2022-11-15T10:03:13;1.63;;;1.10;;
46751;SDS011;32497;48.936;9.270;2022-11-15T10:08:22;2.58;;;1.10;;
46751;SDS011;32497;48.936;9.270;2022-11-15T10:13:32;4.22;;;1.13;;
46751;SDS011;32497;48.936;9.270;2022-11-15T10:18:38;2.92;;;1.30;;
46751;SDS011;32497;48.936;9.270;2022-11-15T10:23:46;4.03;;;1.30;;
46751;SDS011;32497;48.936;9.270;2022-11-15T10:28:48;2.78;;;1.15;;
46751;SDS011;32497;48.936;9.270;2022-11-15T10:33:50;3.22;;;1.38;;
46751;SDS011;32497;48.936;9.270;2022-11-15T10:38:59;1.40;;;0.90;;
46751;SDS011;32497;48.936;9.270;2022-11-15T10:44:17;1.42;;;0.80;;
46751;SDS011;32497;48.936;9.270;2022-11-15T10:49:24;1.05;;;0.80;;
46751;SDS011;32497;48.936;9.270;2022-11-15T10:54:27;1.65;;;0.95;;
46751;SDS011;32497;48.936;9.270;2022-11-15T10:59:31;3.17;;;1.35;;
46751;SDS011;32497;48.936;9.270;2022-11-15T11:04:48;1.85;;;1.13;;
46751;SDS011;32497;48.936;9.270;2022-11-15T11:09:56;4.65;;;0.95;;
46751;SDS011;32497;48.936;9.270;2022-11-15T11:14:59;1.25;;;0.88;;
46751;SDS011;32497;48.936;9.270;2022-11-15T11:20:09;1.70;;;0.90;;
46751;SDS011;32497;48.936;9.270;2022-11-15T11:25:22;1.83;;;1.20;;
46751;SDS011;32497;48.936;9.270;2022-11-15T11:30:32;2.13;;;1.00;;
46751;SDS011;32497;48.936;9.270;2022-11-15T11:35:45;2.67;;;1.40;;
46751;SDS011;32497;48.936;9.270;2022-11-15T11:40:59;1.80;;;1.00;;
46751;SDS011;32497;48.936;9.270;2022-11-15T11:46:10;6.20;;;1.58;;
46751;SDS011;32497;48.936;9.270;2022-11-15T11:51:21;1.90;;;1.30;;
46751;SDS011;32497;48.936;9.270;2022-11-15T11:56:28;1.95;;;1.30;;
46751;SDS011;32497;48.936;9.270;2022-11-15T12:01:32;2.05;;;1.27;;
46751;SDS011;32497;48.936;9.270;2022-11-15T12:06:41;1.92;;;1.38;;
46751;SDS011;32497;48.936;9.270;2022-11-15T12:11:48;2.15;;;0.88;;
46751;SDS011;32497;48.936;9.270;2022-11-15T12:16:52;1.33;;;0.93;;
46751;SDS011;32497;48.936;9.270;2022-11-15T12:21:56;2.60;;;1.08;;
46751;SDS011;32497;48.936;9.270;2022-11-15T12:27:04;2.20;;;1.08;;
46751;SDS011;32497;48.936;9.270;2022-11-15T12:32:14;1.63;;;0.95;;
46751;SDS011;32497;48.936;9.270;2022-11-15T12:43:00;1.30;;;0.90;;
46751;SDS011;32497;48.936;9.270;2022-11-15T12:53:57;1.20;;;0.75;;
46751;SDS011;32497;48.936;9.270;2022-11-15T12:58:59;2.47;;;0.85;;
46751;SDS011;32497;48.936;9.270;2022-11-15T13:04:07;1.98;;;0.90;;
46751;SDS011;32497;48.936;9.270;2022-11-15T13:14:53;2.38;;;0.80;;
46751;SDS011;32497;48.936;9.270;2022-11-15T13:19:56;1.90;;;0.98;;
46751;SDS011;32497;48.936;9.270;2022-11-15T13:25:01;2.90;;;0.75;;
46751;SDS011;32497;48.936;9.270;2022-11-15T13:30:04;1.52;;;0.47;;
46751;SDS011;32497;48.936;9.270;2022-11-15T13:35:06;2.40;;;0.77;;
46751;SDS011;32497;48.936;9.270;2022-11-15T13:40:18;3.08;;;1.08;;
46751;SDS011;32497;48.936;9.270;2022-11-15T13:45:25;1.23;;;0.63;;
46751;SDS011;32497;48.936;9.270;2022-11-15T13:50:27;1.33;;;0.73;;
46751;SDS011;32497;48.936;9.270;2022-11-15T13:55:34;1.17;;;0.68;;
46751;SDS011;32497;48.936;9.270;2022-11-15T14:00:36;0.90;;;0.70;;
46751;SDS011;32497;48.936;9.270;2022-11-15T14:05:38;1.52;;;0.52;;
46751;SDS011;32497;48.936;9.270;2022-11-15T14:10:41;1.38;;;0.60;;
46751;SDS011;32497;48.936;9.270;2022-11-15T14:15:42;4.53;;;0.93;;
46751;SDS011;32497;48.936;9.270;2022-11-15T14:20:43;1.13;;;0.75;;
46751;SDS011;32497;48.936;9.270;2022-11-15T14:25:52;1.13;;;0.63;;
46751;SDS011;32497;48.936;9.270;2022-11-15T14:30:55;2.13;;;0.68;;
46751;SDS011;32497;48.936;9.270;2022-11-15T14:35:58;3.22;;;0.80;;
46751;SDS011;32497;48.936;9.270;2022-11-15T14:41:08;0.80;;;0.50;;
46751;SDS011;32497;48.936;9.270;2022-11-15T14:46:17;9.98;;;1.00;;
46751;SDS011;32497;48.936;9.270;2022-11-15T14:51:18;0.73;;;0.60;;
46751;SDS011;32497;48.936;9.270;2022-11-15T14:56:21;0.82;;;0.50;;
46751;SDS011;32497;48.936;9.270;2022-11-15T15:01:23;0.52;;;0.50;;
46751;SDS011;32497;48.936;9.270;2022-11-15T15:06:28;1.20;;;0.53;;
46751;SDS011;32497;48.936;9.270;2022-11-15T15:11:30;0.93;;;0.53;;
46751;SDS011;32497;48.936;9.270;2022-11-15T15:16:32;0.87;;;0.30;;
46751;SDS011;32497;48.936;9.270;2022-11-15T15:21:33;1.10;;;0.57;;
46751;SDS011;32497;48.936;9.270;2022-11-15T15:26:36;1.00;;;0.50;;
46751;SDS011;32497;48.936;9.270;2022-11-15T15:31:37;0.90;;;0.40;;
46751;SDS011;32497;48.936;9.270;2022-11-15T15:36:38;0.80;;;0.30;;
46751;SDS011;32497;48.936;9.270;2022-11-15T15:41:40;0.57;;;0.37;;
46751;SDS011;32497;48.936;9.270;2022-11-15T15:46:41;0.77;;;0.50;;
46751;SDS011;32497;48.936;9.270;2022-11-15T15:51:42;0.57;;;0.30;;
46751;SDS011;32497;48.936;9.270;2022-11-15T15:56:44;1.30;;;0.33;;
46751;SDS011;32497;48.936;9.270;2022-11-15T16:01:46;1.37;;;0.40;;
46751;SDS011;32497;48.936;9.270;2022-11-15T16:06:47;0.80;;;0.60;;
46751;SDS011;32497;48.936;9.270;2022-11-15T16:11:49;4.00;;;0.77;;
46751;SDS011;32497;48.936;9.270;2022-11-15T16:16:50;1.23;;;0.50;;
46751;SDS011;32497;48.936;9.270;2022-11-15T16:21:51;1.40;;;0.90;;
46751;SDS011;32497;48.936;9.270;2022-11-15T16:26:53;1.00;;;0.70;;
46751;SDS011;32497;48.936;9.270;2022-11-15T16:31:54;2.17;;;1.07;;
46751;SDS011;32497;48.936;9.270;2022-11-15T16:36:56;1.70;;;0.87;;
46751;SDS011;32497;48.936;9.270;2022-11-15T16:41:58;1.57;;;0.80;;
46751;SDS011;32497;48.936;9.270;2022-11-15T16:47:00;1.13;;;0.60;;
46751;SDS011;32497;48.936;9.270;2022-11-15T16:52:01;2.03;;;0.60;;
46751;SDS011;32497;48.936;9.270;2022-11-15T16:57:04;1.83;;;1.20;;
46751;SDS011;32497;48.936;9.270;2022-11-15T17:02:07;6.73;;;1.40;;
46751;SDS011;32497;48.936;9.270;2022-11-15T17:07:11;1.93;;;1.20;;
46751;SDS011;32497;48.936;9.270;2022-11-15T17:12:13;3.20;;;1.37;;
46751;SDS011;32497;48.936;9.270;2022-11-15T17:17:14;1.87;;;1.30;;
46751;SDS011;32497;48.936;9.270;2022-11-15T17:22:15;3.53;;;1.10;;
46751;SDS011;32497;48.936;9.270;2022-11-15T17:27:17;2.93;;;1.50;;
46751;SDS011;32497;48.936;9.270;2022-11-15T17:32:18;2.13;;;1.47;;
46751;SDS011;32497;48.936;9.270;2022-11-15T17:37:19;2.10;;;1.10;;
46751;SDS011;32497;48.936;9.270;2022-11-15T17:42:22;4.70;;;1.00;;
46751;SDS011;32497;48.936;9.270;2022-11-15T17:47:23;2.17;;;1.30;;
46751;SDS011;32497;48.936;9.270;2022-11-15T17:52:24;2.70;;;1.13;;
46751;SDS011;32497;48.936;9.270;2022-11-15T17:57:26;1.90;;;1.20;;
46751;SDS011;32497;48.936;9.270;2022-11-15T18:02:27;1.93;;;0.90;;
46751;SDS011;32497;48.936;9.270;2022-11-15T18:07:30;1.83;;;0.87;;
46751;SDS011;32497;48.936;9.270;2022-11-15T18:12:32;3.20;;;1.50;;
46751;SDS011;32497;48.936;9.270;2022-11-15T18:17:33;1.67;;;0.60;;
46751;SDS011;32497;48.936;9.270;2022-11-15T18:22:34;3.67;;;1.20;;
46751;SDS011;32497;48.936;9.270;2022-11-15T18:27:36;3.20;;;1.20;;
46751;SDS011;32497;48.936;9.270;2022-11-15T18:32:37;3.47;;;1.00;;
46751;SDS011;32497;48.936;9.270;2022-11-15T18:37:38;2.47;;;1.17;;
46751;SDS011;32497;48.936;9.270;2022-11-15T18:42:41;3.20;;;1.60;;
46751;SDS011;32497;48.936;9.270;2022-11-15T18:47:42;4.63;;;1.60;;
46751;SDS011;32497;48.936;9.270;2022-11-15T18:52:43;2.17;;;1.50;;
46751;SDS011;32497;48.936;9.270;2022-11-15T18:57:45;3.10;;;1.60;;
46751;SDS011;32497;48.936;9.270;2022-11-15T19:02:46;2.57;;;1.40;;
46751;SDS011;32497;48.936;9.270;2022-11-15T19:07:47;6.87;;;1.67;;
46751;SDS011;32497;48.936;9.270;2022-11-15T19:12:50;4.07;;;1.60;;
46751;SDS011;32497;48.936;9.270;2022-11-15T19:17:51;2.90;;;1.30;;
46751;SDS011;32497;48.936;9.270;2022-11-15T19:22:52;4.20;;;1.60;;
46751;SDS011;32497;48.936;9.270;2022-11-15T19:27:54;3.93;;;1.80;;
46751;SDS011;32497;48.936;9.270;2022-11-15T19:32:55;5.67;;;2.20;;
46751;SDS011;32497;48.936;9.270;2022-11-15T19:37:56;3.70;;;2.00;;
46751;SDS011;32497;48.936;9.270;2022-11-15T19:43:00;3.43;;;1.43;;
46751;SDS011;32497;48.936;9.270;2022-11-15T19:48:01;4.13;;;2.60;;
46751;SDS011;32497;48.936;9.270;2022-11-15T19:53:02;4.37;;;2.17;;
46751;SDS011;32497;48.936;9.270;2022-11-15T19:58:05;3.53;;;1.97;;
46751;SDS011;32497;48.936;9.270;2022-11-15T20:03:06;4.07;;;2.00;;
46751;SDS011;32497;48.936;9.270;2022-11-15T20:08:07;5.77;;;2.17;;
46751;SDS011;32497;48.936;9.270;2022-11-15T20:13:09;3.50;;;1.60;;
46751;SDS011;32497;48.936;9.270;2022-11-15T20:18:10;2.57;;;1.60;;
46751;SDS011;32497;48.936;9.270;2022-11-15T20:23:11;5.13;;;2.60;;
46751;SDS011;32497;48.936;9.270;2022-11-15T20:28:15;4.53;;;1.83;;
46751;SDS011;32497;48.936;9.270;2022-11-15T20:33:18;5.43;;;2.83;;
46751;SDS011;32497;48.936;9.270;2022-11-15T20:38:20;3.93;;;1.93;;
46751;SDS011;32497;48.936;9.270;2022-11-15T20:43:22;5.47;;;1.90;;
46751;SDS011;32497;48.936;9.270;2022-11-15T20:48:23;7.03;;;2.80;;
46751;SDS011;32497;48.936;9.270;2022-11-15T20:53:24;3.47;;;2.13;;
46751;SDS011;32497;48.936;9.270;2022-11-15T20:58:27;5.03;;;2.53;;
46751;SDS011;32497;48.936;9.270;2022-11-15T21:03:28;2.83;;;1.70;;
46751;SDS011;32497;48.936;9.270;2022-11-15T21:08:29;4.13;;;2.17;;
46751;SDS011;32497;48.936;9.270;2022-11-15T21:13:31;2.77;;;1.77;;
46751;SDS011;32497;48.936;9.270;2022-11-15T21:18:32;2.80;;;1.70;;
46751;SDS011;32497;48.936;9.270;2022-11-15T21:23:33;4.63;;;2.10;;
46751;SDS011;32497;48.936;9.270;2022-11-15T21:28:37;4.73;;;2.23;;
46751;SDS011;32497;48.936;9.270;2022-11-15T21:33:38;4.47;;;2.20;;
46751;SDS011;32497;48.936;9.270;2022-11-15T21:38:39;7.90;;;2.30;;
46751;SDS011;32497;48.936;9.270;2022-11-15T21:43:41;3.67;;;2.00;;
46751;SDS011;32497;48.936;9.270;2022-11-15T21:48:42;5.47;;;2.60;;
46751;SDS011;32497;48.936;9.270;2022-11-15T21:53:43;4.10;;;2.07;;
46751;SDS011;32497;48.936;9.270;2022-11-15T21:58:46;4.83;;;1.90;;
46751;SDS011;32497;48.936;9.270;2022-11-15T22:03:47;3.87;;;1.77;;
46751;SDS011;32497;48.936;9.270;2022-11-15T22:08:48;3.57;;;1.53;;
46751;SDS011;32497;48.936;9.270;2022-11-15T22:13:51;4.93;;;2.20;;
46751;SDS011;32497;48.936;9.270;2022-11-15T22:18:52;5.93;;;2.00;;
46751;SDS011;32497;48.936;9.270;2022-11-15T22:23:53;5.50;;;1.87;;
46751;SDS011;32497;48.936;9.270;2022-11-15T22:28:55;6.50;;;2.50;;
46751;SDS011;32497;48.936;9.270;2022-11-15T22:33:57;6.30;;;2.30;;
46751;SDS011;32497;48.936;9.270;2022-11-15T22:38:58;4.83;;;2.37;;
46751;SDS011;32497;48.936;9.270;2022-11-15T22:44:00;6.73;;;2.63;;
46751;SDS011;32497;48.936;9.270;2022-11-15T22:49:01;4.27;;;1.83;;
46751;SDS011;32497;48.936;9.270;2022-11-15T22:54:03;8.23;;;2.40;;
46751;SDS011;32497;48.936;9.270;2022-11-15T22:59:05;2.77;;;2.13;;
46751;SDS011;32497;48.936;9.270;2022-11-15T23:04:06;5.27;;;2.30;;
46751;SDS011;32497;48.936;9.270;2022-11-15T23:09:08;4.33;;;2.13;;
46751;SDS011;32497;48.936;9.270;2022-11-15T23:14:10;3.00;;;2.20;;
46751;SDS011;32497;48.936;9.270;2022-11-15T23:19:11;6.53;;;2.60;;
46751;SDS011;32497;48.936;9.270;2022-11-15T23:24:13;6.73;;;2.63;;
46751;SDS011;32497;48.936;9.270;2022-11-15T23:29:16;2.77;;;2.03;;
46751;SDS011;32497;48.936;9.270;2022-11-15T23:34:19;7.43;;;2.70;;
46751;SDS011;32497;48.936;9.270;2022-11-15T23:39:21;4.93;;;2.57;;
46751;SDS011;32497;48.936;9.270;2022-11-15T23:44:23;8.30;;;2.63;;
46751;SDS011;32497;48.936;9.270;2022-11-15T23:49:25;8.43;;;3.17;;
46751;SDS011;32497;48.936;9.270;2022-11-15T23:54:26;5.93;;;2.70;;
46751;SDS011;32497;48.936;9.270;2022-11-15T23:59:28;4.40;;;2.30;;
